createdAt,value
2022-11-30T00:01:15.985Z,16.80
2022-11-30T00:06:23.346Z,15.10
2022-11-30T00:11:28.640Z,15.80
2022-11-30T00:16:32.032Z,15.60
2022-11-30T00:21:34.954Z,15.90
2022-11-30T00:26:38.068Z,15.50
2022-11-30T00:31:41.012Z,15.70
2022-11-30T00:36:43.953Z,16.60
2022-11-30T00:41:46.900Z,16.00
2022-11-30T00:46:49.713Z,14.50
2022-11-30T00:51:53.050Z,16.20
2022-11-30T00:56:56.261Z,15.70
2022-11-30T01:01:59.382Z,16.60
2022-11-30T01:07:02.226Z,16.20
2022-11-30T01:12:05.616Z,16.60
2022-11-30T01:17:08.523Z,17.70
2022-11-30T01:22:11.874Z,17.10
2022-11-30T01:27:14.709Z,16.40
2022-11-30T01:32:17.818Z,15.00
2022-11-30T01:37:20.732Z,16.30
2022-11-30T01:42:23.600Z,15.70
2022-11-30T01:47:39.509Z,15.30
2022-11-30T01:52:49.056Z,16.70
2022-11-30T01:58:20.222Z,16.90
2022-11-30T02:03:57.061Z,17.60
2022-11-30T02:09:00.085Z,17.00
2022-11-30T02:14:58.698Z,18.10
2022-11-30T02:20:38.388Z,18.50
2022-11-30T02:26:12.198Z,18.20
2022-11-30T02:31:20.466Z,17.20
2022-11-30T02:36:23.382Z,17.50
2022-11-30T02:41:26.192Z,18.40
2022-11-30T02:46:44.153Z,18.60
2022-11-30T02:51:47.088Z,18.10
2022-11-30T02:56:50.013Z,17.90
2022-11-30T03:01:53.423Z,17.40
2022-11-30T03:07:16.456Z,17.50
2022-11-30T03:12:19.295Z,15.90
2022-11-30T03:17:23.670Z,15.80
2022-11-30T03:22:26.926Z,16.30
2022-11-30T03:27:30.037Z,16.70
2022-11-30T03:32:33.009Z,16.50
2022-11-30T03:37:36.210Z,16.00
2022-11-30T03:42:39.116Z,15.80
2022-11-30T03:47:43.162Z,16.70
2022-11-30T03:52:46.434Z,16.80
2022-11-30T03:57:53.211Z,17.50
2022-11-30T04:02:56.168Z,17.50
2022-11-30T04:08:00.267Z,15.50
2022-11-30T04:13:03.405Z,16.40
2022-11-30T04:18:06.439Z,15.90
2022-11-30T04:23:12.631Z,15.40
2022-11-30T04:28:16.493Z,14.70
2022-11-30T04:33:19.361Z,16.30
2022-11-30T04:38:23.695Z,15.70
2022-11-30T04:43:26.937Z,16.30
2022-11-30T04:48:29.887Z,16.60
2022-11-30T04:53:34.930Z,16.60
2022-11-30T04:58:39.170Z,17.90
2022-11-30T05:03:43.122Z,16.50
2022-11-30T05:08:47.174Z,16.60
2022-11-30T05:13:50.038Z,16.10
2022-11-30T05:18:52.859Z,15.80
2022-11-30T05:23:55.732Z,15.40
2022-11-30T05:28:58.616Z,16.00
2022-11-30T05:34:01.560Z,15.80
2022-11-30T05:39:04.766Z,16.10
2022-11-30T05:44:08.855Z,14.70
2022-11-30T05:49:13.365Z,15.00
2022-11-30T05:54:16.264Z,19.20
2022-11-30T05:59:19.151Z,16.40
2022-11-30T06:04:22.855Z,16.20
2022-11-30T06:09:26.240Z,17.50
2022-11-30T06:14:29.054Z,18.50
2022-11-30T06:19:31.895Z,18.70
2022-11-30T06:24:34.724Z,17.80
2022-11-30T06:29:37.539Z,18.80
2022-11-30T06:34:40.894Z,18.50
2022-11-30T06:40:05.384Z,18.50
2022-11-30T06:45:07.556Z,19.20
2022-11-30T06:50:10.473Z,17.40
2022-11-30T06:56:15.697Z,18.00
2022-11-30T07:01:18.748Z,19.40
2022-11-30T07:06:21.668Z,19.20
2022-11-30T07:11:32.257Z,18.40
2022-11-30T07:16:37.133Z,17.70
2022-11-30T07:21:40.053Z,18.80
2022-11-30T07:26:42.818Z,17.70
2022-11-30T07:31:52.496Z,18.80
2022-11-30T07:36:55.471Z,17.40
2022-11-30T07:41:58.342Z,16.70
2022-11-30T07:47:01.594Z,16.60
2022-11-30T07:52:04.978Z,16.40
2022-11-30T07:57:07.845Z,17.90
2022-11-30T08:02:11.146Z,16.70
2022-11-30T08:07:14.843Z,16.10
2022-11-30T08:12:17.890Z,16.90
2022-11-30T08:17:20.711Z,16.60
2022-11-30T08:22:23.881Z,17.40
2022-11-30T08:27:26.800Z,17.80
2022-11-30T08:32:29.689Z,15.80
2022-11-30T08:37:32.653Z,18.50
2022-11-30T08:42:35.608Z,18.20
2022-11-30T08:47:38.530Z,17.70
2022-11-30T08:52:41.526Z,15.30
2022-11-30T08:57:44.353Z,16.70
2022-11-30T09:02:47.352Z,16.40
2022-11-30T09:07:50.393Z,16.20
2022-11-30T09:12:53.779Z,14.60
2022-11-30T09:17:56.676Z,16.20
2022-11-30T09:22:59.877Z,15.90
2022-11-30T09:28:04.254Z,14.10
2022-11-30T09:33:08.882Z,12.70
2022-11-30T09:38:11.779Z,12.80
2022-11-30T09:44:09.836Z,13.20
2022-11-30T09:49:22.484Z,13.20
2022-11-30T09:54:35.676Z,12.20
2022-11-30T09:59:49.014Z,12.20
2022-11-30T10:04:51.997Z,12.60
2022-11-30T10:15:54.507Z,14.60
2022-11-30T10:21:17.151Z,11.30
2022-11-30T10:26:36.276Z,12.60
2022-11-30T10:31:41.569Z,12.80
2022-11-30T10:36:51.749Z,13.10
2022-11-30T10:42:02.672Z,12.60
2022-11-30T10:47:20.385Z,12.50
2022-11-30T10:52:35.302Z,12.40
2022-11-30T10:57:38.575Z,13.30
2022-11-30T11:02:47.375Z,13.20
2022-11-30T11:08:05.767Z,12.30
2022-11-30T11:18:57.209Z,13.10
2022-11-30T11:24:00.638Z,12.10
2022-11-30T11:29:03.602Z,13.10
2022-11-30T11:34:23.839Z,13.70
2022-11-30T11:39:27.475Z,13.10
2022-11-30T11:44:31.940Z,12.30
2022-11-30T11:49:36.973Z,13.40
2022-11-30T11:54:55.402Z,12.60
2022-11-30T12:00:12.530Z,12.30
2022-11-30T12:05:57.206Z,13.20
2022-11-30T12:11:14.466Z,13.70
2022-11-30T12:17:12.853Z,12.00
2022-11-30T12:22:27.121Z,12.10
2022-11-30T12:28:07.955Z,12.80
2022-11-30T12:34:00.961Z,12.00
2022-11-30T12:39:29.946Z,11.60
2022-11-30T12:44:58.138Z,12.20
2022-11-30T12:50:40.978Z,12.80
2022-11-30T12:56:16.464Z,11.70
2022-11-30T13:02:03.784Z,12.60
2022-11-30T13:07:50.719Z,12.60
2022-11-30T13:12:54.510Z,12.00
2022-11-30T13:17:57.367Z,13.30
2022-11-30T13:23:11.202Z,15.10
2022-11-30T13:28:41.741Z,13.40
2022-11-30T13:33:49.700Z,12.80
2022-11-30T13:39:14.588Z,14.60
2022-11-30T13:44:38.042Z,14.10
2022-11-30T13:49:41.225Z,14.90
2022-11-30T13:54:50.638Z,13.20
2022-11-30T13:59:55.527Z,13.90
2022-11-30T14:05:17.652Z,14.20
2022-11-30T14:10:32.858Z,15.60
2022-11-30T14:15:38.870Z,13.50
2022-11-30T14:20:53.838Z,14.80
2022-11-30T14:26:05.120Z,15.10
2022-11-30T14:31:27.302Z,16.50
2022-11-30T14:36:38.230Z,15.60
2022-11-30T14:41:41.804Z,14.80
2022-11-30T14:46:45.274Z,15.00
2022-11-30T14:52:07.709Z,16.70
2022-11-30T14:58:03.977Z,13.10
2022-11-30T15:08:44.637Z,14.10
2022-11-30T15:13:57.401Z,13.30
2022-11-30T15:19:23.552Z,12.60
2022-11-30T15:24:27.016Z,15.60
2022-11-30T15:29:36.757Z,14.70
2022-11-30T15:35:07.648Z,15.60
2022-11-30T15:40:15.737Z,13.70
2022-11-30T15:45:32.660Z,14.40
2022-11-30T15:50:39.465Z,13.50
2022-11-30T15:55:46.590Z,14.30
2022-11-30T16:01:26.010Z,12.10
2022-11-30T16:11:56.841Z,13.50
2022-11-30T16:17:02.928Z,13.50
2022-11-30T16:22:13.047Z,14.00
2022-11-30T16:27:18.265Z,15.50
2022-11-30T16:32:23.369Z,15.20
2022-11-30T16:37:26.175Z,14.70
2022-11-30T16:42:29.208Z,13.10
2022-11-30T16:47:32.623Z,15.60
2022-11-30T16:52:35.573Z,14.70
2022-11-30T16:57:39.677Z,14.70
2022-11-30T17:03:08.368Z,10.70
2022-11-30T17:08:12.372Z,11.80
2022-11-30T17:13:16.066Z,11.00
2022-11-30T17:18:20.598Z,10.10
2022-11-30T17:23:23.493Z,9.90
2022-11-30T17:28:26.264Z,10.20
2022-11-30T17:33:33.682Z,10.50
2022-11-30T17:38:37.693Z,10.80
2022-11-30T17:43:40.970Z,10.10
2022-11-30T17:48:44.716Z,11.10
2022-11-30T17:53:49.603Z,10.00
2022-11-30T17:58:52.868Z,10.60
2022-11-30T18:03:55.868Z,10.80
2022-11-30T18:08:58.740Z,10.30
2022-11-30T18:14:03.082Z,10.20
2022-11-30T18:19:12.032Z,10.30
2022-11-30T18:24:14.859Z,10.60
2022-11-30T18:29:17.724Z,10.90
2022-11-30T18:34:20.894Z,10.30
2022-11-30T18:39:23.701Z,10.30
2022-11-30T18:44:26.500Z,10.70
2022-11-30T18:49:29.326Z,10.60
2022-11-30T18:54:32.401Z,10.40
2022-11-30T18:59:35.251Z,9.90
2022-11-30T19:04:41.078Z,10.50
2022-11-30T19:09:44.166Z,10.20
2022-11-30T19:14:48.957Z,14.20
2022-11-30T19:19:52.094Z,12.40
2022-11-30T19:24:54.978Z,13.50
2022-11-30T19:29:57.945Z,14.10
2022-11-30T19:35:00.876Z,13.50
2022-11-30T19:40:05.768Z,13.50
2022-11-30T19:45:09.478Z,13.80
2022-11-30T19:50:12.349Z,12.80
2022-11-30T19:55:17.424Z,13.80
2022-11-30T20:00:21.705Z,13.10
2022-11-30T20:05:24.582Z,12.50
2022-11-30T20:10:32.013Z,11.00
2022-11-30T20:15:39.785Z,10.70
2022-11-30T20:20:43.741Z,10.30
2022-11-30T20:25:46.634Z,9.50
2022-11-30T20:30:49.576Z,8.70
2022-11-30T20:35:52.688Z,7.80
2022-11-30T20:40:56.078Z,8.40
2022-11-30T20:46:00.136Z,8.70
2022-11-30T20:51:30.072Z,9.80
2022-11-30T20:56:36.573Z,9.20
2022-11-30T21:01:44.277Z,10.40
2022-11-30T21:06:48.523Z,10.90
2022-11-30T21:11:51.364Z,10.70
2022-11-30T21:16:54.814Z,11.40
2022-11-30T21:21:59.362Z,11.50
2022-11-30T21:27:02.427Z,12.30
2022-11-30T21:32:05.364Z,13.20
2022-11-30T21:37:08.184Z,13.40
2022-11-30T21:42:10.958Z,14.70
2022-11-30T21:47:14.799Z,14.20
2022-11-30T21:52:19.593Z,13.90
2022-11-30T21:57:22.629Z,12.50
2022-11-30T22:02:26.602Z,13.10
2022-11-30T22:07:31.905Z,13.70
2022-11-30T22:12:35.019Z,13.40
2022-11-30T22:17:37.949Z,12.20
2022-11-30T22:22:40.800Z,13.80
2022-11-30T22:27:43.596Z,12.70
2022-11-30T22:32:46.448Z,14.70
2022-11-30T22:37:49.990Z,12.90
2022-11-30T22:42:53.220Z,13.70
2022-11-30T22:47:57.703Z,13.00
2022-11-30T22:53:03.266Z,12.90
2022-11-30T22:58:06.698Z,12.40
2022-11-30T23:03:09.609Z,13.30
2022-11-30T23:08:12.503Z,13.60
2022-11-30T23:13:15.344Z,12.90
2022-11-30T23:18:18.518Z,13.40
2022-11-30T23:23:22.971Z,13.40
2022-11-30T23:28:26.206Z,12.50
2022-11-30T23:33:30.527Z,11.90
2022-11-30T23:38:34.245Z,12.10
2022-11-30T23:43:37.329Z,12.60
2022-11-30T23:48:41.415Z,12.20
2022-11-30T23:53:44.917Z,13.00
2022-11-30T23:58:48.153Z,13.80
